• Join FlightAware (Why Join?)
  • Login
  • US Flag 
07:09PM EDT


 

Airport Tracker/Info


-or-


 

Live Flight TrackerFlight Track Log ✈ KAL1917 ✈ 09-Apr-2014 ✈ RKJK / KUV - RKPC / CJU

Flight Track Log - Related Links

Times and Time Zones

All times are in EDT time to prevent confusion due to time zone crossing. See the KAL1917 flight status page for this flight to view local times or setup timezone preferences in your user account.

Time Position Orientation Groundspeed Altitude Reporting Facility
EDT Latitude Longitude Course Direction KTS MPH feet Rate Location/Type
02:33AM 35.3709 126.5879 182° South  Level Estimated
02:34AM 35.2821 126.5833 182° South  Level Estimated
02:35AM 35.1933 126.5787 182° South  Level Estimated
02:36AM 35.1045 126.5741 182° South  Level Estimated
02:37AM 35.0157 126.5695 182° South  Level Estimated
02:38AM 34.9269 126.5649 182° South  Level Estimated
02:39AM 34.8470 126.5608 182° South  Level Estimated
02:40AM 34.7670 126.5566 182° South  Level Estimated
02:41AM 34.6871 126.5525 182° South  Level Estimated
02:42AM 34.6072 126.5484 182° South  Level Estimated
02:43AM 34.5272 126.5443 182° South  Level Estimated
02:44AM 34.4473 126.5403 182° South  Level Estimated
02:45AM 34.3674 126.5362 182° South  Level Estimated
02:46AM 34.2874 126.5321 182° South  Level Estimated
02:47AM 34.2075 126.5281 182° South  Level Estimated
02:48AM 34.1276 126.5240 182° South  Level Estimated
02:49AM 34.0477 126.5200 182° South  Level Estimated
02:50AM 33.9677 126.5159 182° South  Level Estimated
02:51AM 33.8878 126.5119 182° South  Level Estimated
02:52AM 33.8079 126.5079 182° South  Level Estimated
02:53AM 33.7279 126.5039 182° South  Level Estimated
02:54AM 33.6480 126.4999 182° South  Level Estimated
02:55AM 33.5681 126.4959 182° South  Level Estimated
02:56AM 33.5113 126.4930 182° South  Level Estimated
02:57AM 33.5113 126.4930 North  Level Estimated
02:58AM 33.5113 126.4930 North  Level Estimated
02:59AM 33.5113 126.4930 North  Level Estimated
03:00AM 33.5113 126.4930 North  Level Estimated
03:01AM 33.5113 126.4930 North  Level Estimated
03:02AM 33.5113 126.4930 North  Level Estimated
03:03AM 33.5113 126.4930 North  Level Estimated
03:04AM 33.5113 126.4930 North  Level Estimated